sensor_id;sensor_type;location;lat;lon;timestamp;P1;durP1;ratioP1;P2;durP2;ratioP2
13985;SDS011;7067;51.832;8.296;2023-06-22T00:02:21;6.28;;;5.38;;
13985;SDS011;7067;51.832;8.296;2023-06-22T00:04:47;6.65;;;5.32;;
13985;SDS011;7067;51.832;8.296;2023-06-22T00:07:12;6.10;;;5.47;;
13985;SDS011;7067;51.832;8.296;2023-06-22T00:09:37;6.05;;;5.47;;
13985;SDS011;7067;51.832;8.296;2023-06-22T00:12:03;6.93;;;6.32;;
13985;SDS011;7067;51.832;8.296;2023-06-22T00:14:28;6.18;;;5.65;;
13985;SDS011;7067;51.832;8.296;2023-06-22T00:16:54;6.47;;;5.93;;
13985;SDS011;7067;51.832;8.296;2023-06-22T00:19:22;7.30;;;6.60;;
13985;SDS011;7067;51.832;8.296;2023-06-22T00:21:48;7.47;;;6.93;;
13985;SDS011;7067;51.832;8.296;2023-06-22T00:24:17;6.57;;;6.13;;
13985;SDS011;7067;51.832;8.296;2023-06-22T00:26:46;6.10;;;5.70;;
13985;SDS011;7067;51.832;8.296;2023-06-22T00:29:12;5.85;;;5.35;;
13985;SDS011;7067;51.832;8.296;2023-06-22T00:31:38;5.93;;;5.45;;
13985;SDS011;7067;51.832;8.296;2023-06-22T00:34:03;6.47;;;5.85;;
13985;SDS011;7067;51.832;8.296;2023-06-22T00:36:28;7.32;;;6.22;;
13985;SDS011;7067;51.832;8.296;2023-06-22T00:38:54;6.50;;;5.60;;
13985;SDS011;7067;51.832;8.296;2023-06-22T00:41:19;6.75;;;6.13;;
13985;SDS011;7067;51.832;8.296;2023-06-22T00:43:44;6.72;;;6.22;;
13985;SDS011;7067;51.832;8.296;2023-06-22T00:46:10;6.68;;;6.18;;
13985;SDS011;7067;51.832;8.296;2023-06-22T00:48:35;6.20;;;5.80;;
13985;SDS011;7067;51.832;8.296;2023-06-22T00:51:02;6.82;;;6.32;;
13985;SDS011;7067;51.832;8.296;2023-06-22T00:53:27;6.53;;;5.93;;
13985;SDS011;7067;51.832;8.296;2023-06-22T00:55:53;6.20;;;5.68;;
13985;SDS011;7067;51.832;8.296;2023-06-22T00:58:18;6.50;;;6.00;;
13985;SDS011;7067;51.832;8.296;2023-06-22T01:00:47;6.85;;;6.25;;
13985;SDS011;7067;51.832;8.296;2023-06-22T01:03:12;7.00;;;6.40;;
13985;SDS011;7067;51.832;8.296;2023-06-22T01:05:38;6.03;;;5.55;;
13985;SDS011;7067;51.832;8.296;2023-06-22T01:11:26;6.32;;;5.82;;
13985;SDS011;7067;51.832;8.296;2023-06-22T01:16:41;7.90;;;6.68;;
13985;SDS011;7067;51.832;8.296;2023-06-22T01:19:13;7.22;;;6.57;;
13985;SDS011;7067;51.832;8.296;2023-06-22T01:21:41;7.20;;;6.53;;
13985;SDS011;7067;51.832;8.296;2023-06-22T01:29:19;8.85;;;7.00;;
13985;SDS011;7067;51.832;8.296;2023-06-22T01:31:45;7.68;;;6.97;;
13985;SDS011;7067;51.832;8.296;2023-06-22T01:34:12;7.10;;;6.50;;
13985;SDS011;7067;51.832;8.296;2023-06-22T01:36:37;7.57;;;6.88;;
13985;SDS011;7067;51.832;8.296;2023-06-22T01:39:03;8.35;;;7.38;;
13985;SDS011;7067;51.832;8.296;2023-06-22T01:41:30;7.30;;;6.60;;
13985;SDS011;7067;51.832;8.296;2023-06-22T01:43:58;8.02;;;7.22;;
13985;SDS011;7067;51.832;8.296;2023-06-22T01:46:24;8.30;;;7.32;;
13985;SDS011;7067;51.832;8.296;2023-06-22T01:48:50;7.60;;;7.00;;
13985;SDS011;7067;51.832;8.296;2023-06-22T01:51:16;11.10;;;7.20;;
13985;SDS011;7067;51.832;8.296;2023-06-22T01:53:41;7.43;;;6.75;;
13985;SDS011;7067;51.832;8.296;2023-06-22T01:56:07;7.40;;;6.80;;
13985;SDS011;7067;51.832;8.296;2023-06-22T01:58:33;7.38;;;6.55;;
13985;SDS011;7067;51.832;8.296;2023-06-22T02:01:20;9.93;;;7.05;;
13985;SDS011;7067;51.832;8.296;2023-06-22T02:03:51;9.40;;;6.55;;
13985;SDS011;7067;51.832;8.296;2023-06-22T02:06:21;6.95;;;6.35;;
13985;SDS011;7067;51.832;8.296;2023-06-22T02:08:49;7.40;;;6.90;;
13985;SDS011;7067;51.832;8.296;2023-06-22T02:11:19;9.30;;;6.15;;
13985;SDS011;7067;51.832;8.296;2023-06-22T02:13:45;7.72;;;6.63;;
13985;SDS011;7067;51.832;8.296;2023-06-22T02:16:11;8.13;;;6.47;;
13985;SDS011;7067;51.832;8.296;2023-06-22T02:18:36;7.07;;;6.47;;
13985;SDS011;7067;51.832;8.296;2023-06-22T02:21:02;8.85;;;7.00;;
13985;SDS011;7067;51.832;8.296;2023-06-22T02:23:27;11.35;;;7.50;;
13985;SDS011;7067;51.832;8.296;2023-06-22T02:25:53;7.82;;;7.15;;
13985;SDS011;7067;51.832;8.296;2023-06-22T02:28:18;8.35;;;6.35;;
13985;SDS011;7067;51.832;8.296;2023-06-22T02:30:44;13.23;;;6.55;;
13985;SDS011;7067;51.832;8.296;2023-06-22T02:33:09;8.50;;;6.50;;
13985;SDS011;7067;51.832;8.296;2023-06-22T02:35:35;8.88;;;7.00;;
13985;SDS011;7067;51.832;8.296;2023-06-22T02:38:01;9.77;;;7.20;;
13985;SDS011;7067;51.832;8.296;2023-06-22T02:40:27;10.60;;;7.60;;
13985;SDS011;7067;51.832;8.296;2023-06-22T02:42:53;8.32;;;7.53;;
13985;SDS011;7067;51.832;8.296;2023-06-22T02:45:19;9.68;;;7.13;;
13985;SDS011;7067;51.832;8.296;2023-06-22T02:47:44;7.75;;;7.05;;
13985;SDS011;7067;51.832;8.296;2023-06-22T02:50:09;9.52;;;7.45;;
13985;SDS011;7067;51.832;8.296;2023-06-22T02:52:35;9.88;;;8.88;;
13985;SDS011;7067;51.832;8.296;2023-06-22T02:55:01;8.90;;;7.97;;
13985;SDS011;7067;51.832;8.296;2023-06-22T02:57:26;7.85;;;7.05;;
13985;SDS011;7067;51.832;8.296;2023-06-22T02:59:52;8.23;;;7.43;;
13985;SDS011;7067;51.832;8.296;2023-06-22T03:02:17;7.85;;;7.25;;
13985;SDS011;7067;51.832;8.296;2023-06-22T03:04:43;9.27;;;7.47;;
13985;SDS011;7067;51.832;8.296;2023-06-22T03:07:08;8.73;;;7.65;;
13985;SDS011;7067;51.832;8.296;2023-06-22T03:09:34;8.43;;;7.50;;
13985;SDS011;7067;51.832;8.296;2023-06-22T03:11:59;9.13;;;7.63;;
13985;SDS011;7067;51.832;8.296;2023-06-22T03:14:24;8.48;;;7.47;;
13985;SDS011;7067;51.832;8.296;2023-06-22T03:16:50;9.48;;;8.52;;
13985;SDS011;7067;51.832;8.296;2023-06-22T03:19:15;11.95;;;8.82;;
13985;SDS011;7067;51.832;8.296;2023-06-22T03:21:41;8.98;;;7.97;;
13985;SDS011;7067;51.832;8.296;2023-06-22T03:24:07;9.25;;;8.35;;
13985;SDS011;7067;51.832;8.296;2023-06-22T03:26:32;10.95;;;8.05;;
13985;SDS011;7067;51.832;8.296;2023-06-22T03:28:58;10.32;;;8.57;;
13985;SDS011;7067;51.832;8.296;2023-06-22T03:31:23;9.05;;;8.23;;
13985;SDS011;7067;51.832;8.296;2023-06-22T03:33:49;9.45;;;8.65;;
13985;SDS011;7067;51.832;8.296;2023-06-22T03:36:15;9.73;;;8.95;;
13985;SDS011;7067;51.832;8.296;2023-06-22T03:38:44;11.10;;;9.33;;
13985;SDS011;7067;51.832;8.296;2023-06-22T03:41:10;10.73;;;9.63;;
13985;SDS011;7067;51.832;8.296;2023-06-22T03:43:35;10.15;;;9.25;;
13985;SDS011;7067;51.832;8.296;2023-06-22T03:46:00;10.73;;;9.65;;
13985;SDS011;7067;51.832;8.296;2023-06-22T03:48:25;14.20;;;12.82;;
13985;SDS011;7067;51.832;8.296;2023-06-22T03:50:51;12.25;;;11.07;;
13985;SDS011;7067;51.832;8.296;2023-06-22T03:53:16;13.63;;;12.38;;
13985;SDS011;7067;51.832;8.296;2023-06-22T03:55:48;13.27;;;12.15;;
13985;SDS011;7067;51.832;8.296;2023-06-22T03:58:15;13.68;;;12.50;;
13985;SDS011;7067;51.832;8.296;2023-06-22T04:00:40;14.48;;;13.25;;
13985;SDS011;7067;51.832;8.296;2023-06-22T04:03:06;13.75;;;12.65;;
13985;SDS011;7067;51.832;8.296;2023-06-22T04:05:32;14.55;;;13.25;;
13985;SDS011;7067;51.832;8.296;2023-06-22T04:07:57;14.10;;;12.85;;
13985;SDS011;7067;51.832;8.296;2023-06-22T04:10:23;13.95;;;12.75;;
13985;SDS011;7067;51.832;8.296;2023-06-22T04:12:48;14.50;;;12.65;;
13985;SDS011;7067;51.832;8.296;2023-06-22T04:15:13;12.77;;;11.80;;
13985;SDS011;7067;51.832;8.296;2023-06-22T04:17:39;15.02;;;13.52;;
13985;SDS011;7067;51.832;8.296;2023-06-22T04:20:04;14.40;;;12.43;;
13985;SDS011;7067;51.832;8.296;2023-06-22T04:22:30;13.07;;;11.88;;
13985;SDS011;7067;51.832;8.296;2023-06-22T04:24:55;14.52;;;13.25;;
13985;SDS011;7067;51.832;8.296;2023-06-22T04:27:21;15.00;;;13.73;;
13985;SDS011;7067;51.832;8.296;2023-06-22T04:29:48;15.07;;;12.95;;
13985;SDS011;7067;51.832;8.296;2023-06-22T04:32:14;14.18;;;12.93;;
13985;SDS011;7067;51.832;8.296;2023-06-22T04:34:40;13.93;;;12.70;;
13985;SDS011;7067;51.832;8.296;2023-06-22T04:37:05;13.20;;;12.10;;
13985;SDS011;7067;51.832;8.296;2023-06-22T04:39:30;14.82;;;13.45;;
13985;SDS011;7067;51.832;8.296;2023-06-22T04:41:56;13.43;;;12.32;;
13985;SDS011;7067;51.832;8.296;2023-06-22T04:44:25;13.93;;;12.90;;
13985;SDS011;7067;51.832;8.296;2023-06-22T04:46:52;14.82;;;13.50;;
13985;SDS011;7067;51.832;8.296;2023-06-22T04:49:26;15.13;;;13.00;;
13985;SDS011;7067;51.832;8.296;2023-06-22T04:52:01;13.23;;;12.02;;
13985;SDS011;7067;51.832;8.296;2023-06-22T04:54:27;13.77;;;12.55;;
13985;SDS011;7067;51.832;8.296;2023-06-22T04:56:53;15.75;;;14.18;;
13985;SDS011;7067;51.832;8.296;2023-06-22T04:59:22;15.20;;;13.70;;
13985;SDS011;7067;51.832;8.296;2023-06-22T05:01:47;15.07;;;13.52;;
13985;SDS011;7067;51.832;8.296;2023-06-22T05:04:13;15.05;;;13.45;;
13985;SDS011;7067;51.832;8.296;2023-06-22T05:06:38;15.65;;;14.15;;
13985;SDS011;7067;51.832;8.296;2023-06-22T05:09:03;14.35;;;13.05;;
13985;SDS011;7067;51.832;8.296;2023-06-22T05:11:30;15.45;;;14.00;;
13985;SDS011;7067;51.832;8.296;2023-06-22T05:13:55;14.70;;;12.82;;
13985;SDS011;7067;51.832;8.296;2023-06-22T05:16:21;14.15;;;12.95;;
13985;SDS011;7067;51.832;8.296;2023-06-22T05:18:52;13.57;;;12.43;;
13985;SDS011;7067;51.832;8.296;2023-06-22T05:21:21;14.20;;;13.00;;
13985;SDS011;7067;51.832;8.296;2023-06-22T05:23:47;14.60;;;13.02;;
13985;SDS011;7067;51.832;8.296;2023-06-22T05:26:12;14.57;;;13.10;;
13985;SDS011;7067;51.832;8.296;2023-06-22T05:28:38;14.57;;;13.07;;
13985;SDS011;7067;51.832;8.296;2023-06-22T05:31:03;15.23;;;13.82;;
13985;SDS011;7067;51.832;8.296;2023-06-22T05:33:29;14.48;;;13.10;;
13985;SDS011;7067;51.832;8.296;2023-06-22T05:35:54;15.23;;;13.93;;
13985;SDS011;7067;51.832;8.296;2023-06-22T05:38:19;14.98;;;13.63;;
13985;SDS011;7067;51.832;8.296;2023-06-22T05:40:45;14.50;;;13.30;;
13985;SDS011;7067;51.832;8.296;2023-06-22T05:43:10;13.95;;;12.63;;
13985;SDS011;7067;51.832;8.296;2023-06-22T05:45:35;13.32;;;12.07;;
13985;SDS011;7067;51.832;8.296;2023-06-22T05:48:00;15.52;;;13.73;;
13985;SDS011;7067;51.832;8.296;2023-06-22T05:50:26;13.43;;;12.23;;
13985;SDS011;7067;51.832;8.296;2023-06-22T05:52:52;16.83;;;13.68;;
13985;SDS011;7067;51.832;8.296;2023-06-22T05:55:17;15.27;;;13.88;;
13985;SDS011;7067;51.832;8.296;2023-06-22T05:57:43;15.32;;;13.98;;
13985;SDS011;7067;51.832;8.296;2023-06-22T06:00:09;15.10;;;13.57;;
13985;SDS011;7067;51.832;8.296;2023-06-22T06:02:35;15.13;;;13.40;;
13985;SDS011;7067;51.832;8.296;2023-06-22T06:05:01;20.60;;;12.85;;
13985;SDS011;7067;51.832;8.296;2023-06-22T06:07:27;14.55;;;13.13;;
13985;SDS011;7067;51.832;8.296;2023-06-22T06:09:53;13.43;;;12.27;;
13985;SDS011;7067;51.832;8.296;2023-06-22T06:12:18;15.18;;;13.85;;
13985;SDS011;7067;51.832;8.296;2023-06-22T06:14:43;14.65;;;13.35;;
13985;SDS011;7067;51.832;8.296;2023-06-22T06:17:08;15.10;;;13.57;;
13985;SDS011;7067;51.832;8.296;2023-06-22T06:19:34;15.00;;;13.20;;
13985;SDS011;7067;51.832;8.296;2023-06-22T06:21:59;15.57;;;14.02;;
13985;SDS011;7067;51.832;8.296;2023-06-22T06:24:25;15.07;;;13.65;;
13985;SDS011;7067;51.832;8.296;2023-06-22T06:26:50;15.13;;;13.77;;
13985;SDS011;7067;51.832;8.296;2023-06-22T06:29:16;14.25;;;12.93;;
13985;SDS011;7067;51.832;8.296;2023-06-22T06:31:41;13.65;;;12.48;;
13985;SDS011;7067;51.832;8.296;2023-06-22T06:34:07;14.10;;;12.95;;
13985;SDS011;7067;51.832;8.296;2023-06-22T06:36:32;14.00;;;12.82;;
13985;SDS011;7067;51.832;8.296;2023-06-22T06:38:57;14.70;;;13.27;;
13985;SDS011;7067;51.832;8.296;2023-06-22T06:41:23;20.88;;;14.98;;
13985;SDS011;7067;51.832;8.296;2023-06-22T06:43:48;15.15;;;13.60;;
13985;SDS011;7067;51.832;8.296;2023-06-22T06:46:14;16.92;;;15.15;;
13985;SDS011;7067;51.832;8.296;2023-06-22T06:48:39;17.05;;;15.10;;
13985;SDS011;7067;51.832;8.296;2023-06-22T06:51:05;16.23;;;14.65;;
13985;SDS011;7067;51.832;8.296;2023-06-22T06:53:30;16.02;;;14.63;;
13985;SDS011;7067;51.832;8.296;2023-06-22T06:55:56;14.93;;;13.60;;
13985;SDS011;7067;51.832;8.296;2023-06-22T06:58:21;16.10;;;13.70;;
13985;SDS011;7067;51.832;8.296;2023-06-22T07:00:48;18.50;;;16.60;;
13985;SDS011;7067;51.832;8.296;2023-06-22T07:03:13;19.27;;;17.13;;
13985;SDS011;7067;51.832;8.296;2023-06-22T07:05:39;16.80;;;15.40;;
13985;SDS011;7067;51.832;8.296;2023-06-22T07:08:04;17.90;;;16.40;;
13985;SDS011;7067;51.832;8.296;2023-06-22T07:10:29;17.58;;;16.08;;
13985;SDS011;7067;51.832;8.296;2023-06-22T07:12:55;16.73;;;15.05;;
13985;SDS011;7067;51.832;8.296;2023-06-22T07:15:22;17.00;;;15.30;;
13985;SDS011;7067;51.832;8.296;2023-06-22T07:17:47;18.40;;;15.82;;
13985;SDS011;7067;51.832;8.296;2023-06-22T07:20:12;16.42;;;15.05;;
13985;SDS011;7067;51.832;8.296;2023-06-22T07:22:38;17.88;;;16.23;;
13985;SDS011;7067;51.832;8.296;2023-06-22T07:25:04;16.77;;;15.18;;
13985;SDS011;7067;51.832;8.296;2023-06-22T07:30:00;16.77;;;15.27;;
13985;SDS011;7067;51.832;8.296;2023-06-22T07:32:26;18.27;;;16.48;;
13985;SDS011;7067;51.832;8.296;2023-06-22T07:34:53;17.02;;;15.27;;
13985;SDS011;7067;51.832;8.296;2023-06-22T07:37:18;17.00;;;15.57;;
13985;SDS011;7067;51.832;8.296;2023-06-22T07:39:44;17.92;;;16.33;;
13985;SDS011;7067;51.832;8.296;2023-06-22T07:42:09;17.20;;;15.55;;
13985;SDS011;7067;51.832;8.296;2023-06-22T07:44:35;17.85;;;16.27;;
13985;SDS011;7067;51.832;8.296;2023-06-22T07:47:00;17.48;;;16.08;;
13985;SDS011;7067;51.832;8.296;2023-06-22T07:49:25;19.30;;;17.40;;
13985;SDS011;7067;51.832;8.296;2023-06-22T07:51:51;18.67;;;16.98;;
13985;SDS011;7067;51.832;8.296;2023-06-22T07:54:16;18.25;;;16.52;;
13985;SDS011;7067;51.832;8.296;2023-06-22T07:56:42;17.92;;;16.55;;
13985;SDS011;7067;51.832;8.296;2023-06-22T07:59:08;17.88;;;16.27;;
13985;SDS011;7067;51.832;8.296;2023-06-22T08:01:33;15.77;;;14.32;;
13985;SDS011;7067;51.832;8.296;2023-06-22T08:03:58;14.93;;;13.82;;
13985;SDS011;7067;51.832;8.296;2023-06-22T08:06:24;16.10;;;14.75;;
13985;SDS011;7067;51.832;8.296;2023-06-22T08:08:49;15.27;;;14.02;;
13985;SDS011;7067;51.832;8.296;2023-06-22T08:11:17;15.25;;;13.80;;
13985;SDS011;7067;51.832;8.296;2023-06-22T08:13:43;14.23;;;13.00;;
13985;SDS011;7067;51.832;8.296;2023-06-22T08:16:08;13.65;;;12.45;;
13985;SDS011;7067;51.832;8.296;2023-06-22T08:18:33;13.45;;;12.45;;
13985;SDS011;7067;51.832;8.296;2023-06-22T08:20:59;12.63;;;11.63;;
13985;SDS011;7067;51.832;8.296;2023-06-22T08:23:24;11.90;;;10.88;;
13985;SDS011;7067;51.832;8.296;2023-06-22T08:25:50;13.05;;;11.90;;
13985;SDS011;7067;51.832;8.296;2023-06-22T08:28:15;15.82;;;14.43;;
13985;SDS011;7067;51.832;8.296;2023-06-22T08:30:40;17.25;;;15.73;;
13985;SDS011;7067;51.832;8.296;2023-06-22T08:33:06;15.10;;;13.75;;
13985;SDS011;7067;51.832;8.296;2023-06-22T08:35:31;10.75;;;9.85;;
13985;SDS011;7067;51.832;8.296;2023-06-22T08:37:57;10.52;;;9.73;;
13985;SDS011;7067;51.832;8.296;2023-06-22T08:40:23;9.95;;;9.25;;
13985;SDS011;7067;51.832;8.296;2023-06-22T08:42:49;11.18;;;10.18;;
13985;SDS011;7067;51.832;8.296;2023-06-22T08:45:14;10.88;;;9.85;;
13985;SDS011;7067;51.832;8.296;2023-06-22T08:47:40;11.95;;;10.95;;
13985;SDS011;7067;51.832;8.296;2023-06-22T08:50:09;10.37;;;9.33;;
13985;SDS011;7067;51.832;8.296;2023-06-22T08:52:35;11.77;;;10.63;;
13985;SDS011;7067;51.832;8.296;2023-06-22T08:55:01;10.63;;;9.85;;
13985;SDS011;7067;51.832;8.296;2023-06-22T08:57:27;9.38;;;8.63;;
13985;SDS011;7067;51.832;8.296;2023-06-22T08:59:53;10.07;;;9.38;;
13985;SDS011;7067;51.832;8.296;2023-06-22T09:02:18;11.75;;;10.82;;
13985;SDS011;7067;51.832;8.296;2023-06-22T09:04:45;11.40;;;10.50;;
13985;SDS011;7067;51.832;8.296;2023-06-22T09:07:11;10.18;;;9.35;;
13985;SDS011;7067;51.832;8.296;2023-06-22T09:09:36;11.23;;;10.32;;
13985;SDS011;7067;51.832;8.296;2023-06-22T09:12:02;8.82;;;8.02;;
13985;SDS011;7067;51.832;8.296;2023-06-22T09:14:27;8.88;;;8.27;;
13985;SDS011;7067;51.832;8.296;2023-06-22T09:16:52;9.13;;;8.52;;
13985;SDS011;7067;51.832;8.296;2023-06-22T09:19:18;11.27;;;10.40;;
13985;SDS011;7067;51.832;8.296;2023-06-22T09:21:43;10.60;;;9.80;;
13985;SDS011;7067;51.832;8.296;2023-06-22T09:24:08;11.95;;;10.85;;
13985;SDS011;7067;51.832;8.296;2023-06-22T09:26:34;10.07;;;9.32;;
13985;SDS011;7067;51.832;8.296;2023-06-22T09:28:59;11.02;;;9.90;;
13985;SDS011;7067;51.832;8.296;2023-06-22T09:31:24;10.10;;;9.40;;
13985;SDS011;7067;51.832;8.296;2023-06-22T09:33:53;10.38;;;9.40;;
13985;SDS011;7067;51.832;8.296;2023-06-22T09:36:22;9.75;;;9.05;;
13985;SDS011;7067;51.832;8.296;2023-06-22T09:38:48;9.40;;;8.55;;
13985;SDS011;7067;51.832;8.296;2023-06-22T09:41:14;8.68;;;8.00;;
13985;SDS011;7067;51.832;8.296;2023-06-22T09:43:39;9.38;;;8.63;;
13985;SDS011;7067;51.832;8.296;2023-06-22T09:46:05;7.47;;;6.95;;
13985;SDS011;7067;51.832;8.296;2023-06-22T09:48:32;8.23;;;7.65;;
13985;SDS011;7067;51.832;8.296;2023-06-22T09:50:57;8.98;;;8.32;;
13985;SDS011;7067;51.832;8.296;2023-06-22T09:53:22;8.55;;;7.95;;
13985;SDS011;7067;51.832;8.296;2023-06-22T09:55:47;9.55;;;8.77;;
13985;SDS011;7067;51.832;8.296;2023-06-22T09:58:13;7.93;;;7.32;;
13985;SDS011;7067;51.832;8.296;2023-06-22T10:00:38;6.75;;;6.25;;
13985;SDS011;7067;51.832;8.296;2023-06-22T10:03:04;6.65;;;6.25;;
13985;SDS011;7067;51.832;8.296;2023-06-22T10:05:29;6.85;;;6.43;;
13985;SDS011;7067;51.832;8.296;2023-06-22T10:07:54;7.00;;;6.50;;
13985;SDS011;7067;51.832;8.296;2023-06-22T10:10:19;6.45;;;5.95;;
13985;SDS011;7067;51.832;8.296;2023-06-22T10:12:46;6.40;;;5.90;;
13985;SDS011;7067;51.832;8.296;2023-06-22T10:15:12;6.57;;;6.07;;
13985;SDS011;7067;51.832;8.296;2023-06-22T10:17:37;5.30;;;4.90;;
13985;SDS011;7067;51.832;8.296;2023-06-22T10:20:03;7.43;;;6.82;;
13985;SDS011;7067;51.832;8.296;2023-06-22T10:22:36;5.60;;;5.20;;
13985;SDS011;7067;51.832;8.296;2023-06-22T10:25:01;6.43;;;6.03;;
13985;SDS011;7067;51.832;8.296;2023-06-22T10:27:26;5.95;;;5.55;;
13985;SDS011;7067;51.832;8.296;2023-06-22T10:29:51;6.65;;;6.15;;
13985;SDS011;7067;51.832;8.296;2023-06-22T10:32:17;7.15;;;6.60;;
13985;SDS011;7067;51.832;8.296;2023-06-22T10:34:42;5.68;;;5.28;;
13985;SDS011;7067;51.832;8.296;2023-06-22T10:37:07;5.43;;;5.03;;
13985;SDS011;7067;51.832;8.296;2023-06-22T10:39:33;5.97;;;5.57;;
13985;SDS011;7067;51.832;8.296;2023-06-22T10:41:58;6.10;;;5.70;;
13985;SDS011;7067;51.832;8.296;2023-06-22T10:44:23;5.88;;;5.47;;
13985;SDS011;7067;51.832;8.296;2023-06-22T10:46:49;5.97;;;5.57;;
13985;SDS011;7067;51.832;8.296;2023-06-22T10:49:14;6.10;;;5.70;;
13985;SDS011;7067;51.832;8.296;2023-06-22T10:51:39;5.65;;;5.25;;
13985;SDS011;7067;51.832;8.296;2023-06-22T10:54:04;6.22;;;5.72;;
13985;SDS011;7067;51.832;8.296;2023-06-22T10:56:30;6.10;;;5.70;;
13985;SDS011;7067;51.832;8.296;2023-06-22T10:58:55;6.28;;;5.78;;
13985;SDS011;7067;51.832;8.296;2023-06-22T11:01:20;6.57;;;6.18;;
13985;SDS011;7067;51.832;8.296;2023-06-22T11:03:46;6.65;;;6.15;;
13985;SDS011;7067;51.832;8.296;2023-06-22T11:06:11;6.13;;;5.70;;
13985;SDS011;7067;51.832;8.296;2023-06-22T11:08:36;7.25;;;6.75;;
13985;SDS011;7067;51.832;8.296;2023-06-22T11:11:02;7.07;;;6.68;;
13985;SDS011;7067;51.832;8.296;2023-06-22T11:13:27;7.03;;;6.53;;
13985;SDS011;7067;51.832;8.296;2023-06-22T11:15:52;7.68;;;6.97;;
13985;SDS011;7067;51.832;8.296;2023-06-22T11:18:18;8.52;;;7.93;;
13985;SDS011;7067;51.832;8.296;2023-06-22T11:20:43;7.70;;;7.10;;
13985;SDS011;7067;51.832;8.296;2023-06-22T11:23:08;6.97;;;6.50;;
13985;SDS011;7067;51.832;8.296;2023-06-22T11:25:34;8.50;;;7.75;;
13985;SDS011;7067;51.832;8.296;2023-06-22T11:28:03;7.85;;;7.30;;
13985;SDS011;7067;51.832;8.296;2023-06-22T11:30:29;7.63;;;7.10;;
13985;SDS011;7067;51.832;8.296;2023-06-22T11:32:54;7.80;;;7.25;;
13985;SDS011;7067;51.832;8.296;2023-06-22T11:35:21;7.57;;;7.00;;
13985;SDS011;7067;51.832;8.296;2023-06-22T11:37:46;7.63;;;7.10;;
13985;SDS011;7067;51.832;8.296;2023-06-22T11:40:11;7.55;;;7.05;;
13985;SDS011;7067;51.832;8.296;2023-06-22T11:42:37;7.15;;;6.60;;
13985;SDS011;7067;51.832;8.296;2023-06-22T11:45:04;7.00;;;6.45;;
13985;SDS011;7067;51.832;8.296;2023-06-22T11:47:30;6.43;;;6.03;;
13985;SDS011;7067;51.832;8.296;2023-06-22T11:49:55;7.50;;;6.97;;
13985;SDS011;7067;51.832;8.296;2023-06-22T11:52:21;7.28;;;6.78;;
13985;SDS011;7067;51.832;8.296;2023-06-22T11:54:46;6.93;;;6.40;;
13985;SDS011;7067;51.832;8.296;2023-06-22T11:57:11;7.00;;;6.50;;
13985;SDS011;7067;51.832;8.296;2023-06-22T11:59:36;7.35;;;6.85;;
13985;SDS011;7067;51.832;8.296;2023-06-22T12:02:02;6.95;;;6.35;;
13985;SDS011;7067;51.832;8.296;2023-06-22T12:04:28;7.35;;;6.85;;
13985;SDS011;7067;51.832;8.296;2023-06-22T12:06:53;8.00;;;7.20;;
13985;SDS011;7067;51.832;8.296;2023-06-22T12:09:19;7.43;;;6.95;;
13985;SDS011;7067;51.832;8.296;2023-06-22T12:11:44;7.72;;;7.15;;
13985;SDS011;7067;51.832;8.296;2023-06-22T12:14:09;7.78;;;7.07;;
13985;SDS011;7067;51.832;8.296;2023-06-22T12:16:35;7.28;;;6.78;;
13985;SDS011;7067;51.832;8.296;2023-06-22T12:19:00;7.93;;;7.25;;
13985;SDS011;7067;51.832;8.296;2023-06-22T12:21:25;8.55;;;7.97;;
13985;SDS011;7067;51.832;8.296;2023-06-22T12:23:51;7.38;;;6.70;;
13985;SDS011;7067;51.832;8.296;2023-06-22T12:26:16;8.65;;;8.02;;
13985;SDS011;7067;51.832;8.296;2023-06-22T12:28:41;8.18;;;7.55;;
13985;SDS011;7067;51.832;8.296;2023-06-22T12:31:07;7.93;;;7.32;;
13985;SDS011;7067;51.832;8.296;2023-06-22T12:33:32;9.30;;;8.63;;
13985;SDS011;7067;51.832;8.296;2023-06-22T12:35:57;8.73;;;8.13;;
13985;SDS011;7067;51.832;8.296;2023-06-22T12:38:23;9.18;;;8.32;;
13985;SDS011;7067;51.832;8.296;2023-06-22T12:40:50;9.65;;;9.00;;
13985;SDS011;7067;51.832;8.296;2023-06-22T12:43:16;9.63;;;8.93;;
13985;SDS011;7067;51.832;8.296;2023-06-22T12:45:41;10.50;;;9.60;;
13985;SDS011;7067;51.832;8.296;2023-06-22T12:48:06;10.82;;;9.88;;
13985;SDS011;7067;51.832;8.296;2023-06-22T12:50:33;10.10;;;9.30;;
13985;SDS011;7067;51.832;8.296;2023-06-22T12:52:58;10.40;;;9.60;;
13985;SDS011;7067;51.832;8.296;2023-06-22T12:55:25;11.68;;;10.65;;
13985;SDS011;7067;51.832;8.296;2023-06-22T12:57:50;11.38;;;10.50;;
13985;SDS011;7067;51.832;8.296;2023-06-22T13:00:15;12.00;;;11.07;;
13985;SDS011;7067;51.832;8.296;2023-06-22T13:02:41;11.60;;;10.70;;
13985;SDS011;7067;51.832;8.296;2023-06-22T13:05:07;12.93;;;11.93;;
13985;SDS011;7067;51.832;8.296;2023-06-22T13:07:33;12.57;;;11.10;;
13985;SDS011;7067;51.832;8.296;2023-06-22T13:09:58;13.02;;;11.90;;
13985;SDS011;7067;51.832;8.296;2023-06-22T13:12:24;12.80;;;11.70;;
13985;SDS011;7067;51.832;8.296;2023-06-22T13:14:49;13.10;;;11.82;;
13985;SDS011;7067;51.832;8.296;2023-06-22T13:17:15;13.40;;;12.30;;
13985;SDS011;7067;51.832;8.296;2023-06-22T13:20:00;15.98;;;13.23;;
13985;SDS011;7067;51.832;8.296;2023-06-22T13:22:26;15.65;;;14.23;;
13985;SDS011;7067;51.832;8.296;2023-06-22T13:25:04;18.90;;;17.00;;
13985;SDS011;7067;51.832;8.296;2023-06-22T13:27:30;16.92;;;15.60;;
13985;SDS011;7067;51.832;8.296;2023-06-22T13:29:55;18.10;;;16.20;;
13985;SDS011;7067;51.832;8.296;2023-06-22T13:32:21;19.30;;;17.50;;
13985;SDS011;7067;51.832;8.296;2023-06-22T13:34:46;21.67;;;19.77;;
13985;SDS011;7067;51.832;8.296;2023-06-22T13:37:11;22.10;;;19.90;;
13985;SDS011;7067;51.832;8.296;2023-06-22T13:39:37;23.63;;;21.20;;
13985;SDS011;7067;51.832;8.296;2023-06-22T13:42:02;23.23;;;21.23;;
13985;SDS011;7067;51.832;8.296;2023-06-22T13:44:27;25.00;;;22.48;;
13985;SDS011;7067;51.832;8.296;2023-06-22T13:46:54;23.85;;;21.55;;
13985;SDS011;7067;51.832;8.296;2023-06-22T13:49:19;25.25;;;22.60;;
13985;SDS011;7067;51.832;8.296;2023-06-22T13:51:45;26.55;;;24.10;;
13985;SDS011;7067;51.832;8.296;2023-06-22T13:54:10;26.42;;;23.83;;
13985;SDS011;7067;51.832;8.296;2023-06-22T13:56:35;25.75;;;23.25;;
13985;SDS011;7067;51.832;8.296;2023-06-22T13:59:01;25.30;;;23.00;;
13985;SDS011;7067;51.832;8.296;2023-06-22T14:01:26;24.50;;;22.20;;
13985;SDS011;7067;51.832;8.296;2023-06-22T14:03:51;25.83;;;23.38;;
13985;SDS011;7067;51.832;8.296;2023-06-22T14:06:16;27.13;;;24.48;;
13985;SDS011;7067;51.832;8.296;2023-06-22T14:08:42;26.67;;;24.00;;
13985;SDS011;7067;51.832;8.296;2023-06-22T14:11:07;24.75;;;22.50;;
13985;SDS011;7067;51.832;8.296;2023-06-22T14:13:32;26.38;;;23.95;;
13985;SDS011;7067;51.832;8.296;2023-06-22T14:15:58;27.05;;;24.38;;
13985;SDS011;7067;51.832;8.296;2023-06-22T14:18:23;28.15;;;25.40;;
13985;SDS011;7067;51.832;8.296;2023-06-22T14:20:48;26.98;;;24.27;;
13985;SDS011;7067;51.832;8.296;2023-06-22T14:23:14;28.25;;;25.13;;
13985;SDS011;7067;51.832;8.296;2023-06-22T14:25:39;27.08;;;24.55;;
13985;SDS011;7067;51.832;8.296;2023-06-22T14:28:05;23.77;;;21.48;;
13985;SDS011;7067;51.832;8.296;2023-06-22T14:30:30;23.05;;;21.15;;
13985;SDS011;7067;51.832;8.296;2023-06-22T14:32:55;21.10;;;19.15;;
13985;SDS011;7067;51.832;8.296;2023-06-22T14:35:21;19.15;;;17.55;;
13985;SDS011;7067;51.832;8.296;2023-06-22T14:37:46;17.17;;;15.60;;
13985;SDS011;7067;51.832;8.296;2023-06-22T14:40:11;16.95;;;15.23;;
13985;SDS011;7067;51.832;8.296;2023-06-22T14:42:37;14.43;;;13.32;;
13985;SDS011;7067;51.832;8.296;2023-06-22T14:45:02;12.15;;;11.25;;
13985;SDS011;7067;51.832;8.296;2023-06-22T14:47:28;12.40;;;11.48;;
13985;SDS011;7067;51.832;8.296;2023-06-22T14:49:53;13.18;;;11.95;;
13985;SDS011;7067;51.832;8.296;2023-06-22T14:52:19;13.15;;;12.05;;
13985;SDS011;7067;51.832;8.296;2023-06-22T14:54:45;13.65;;;12.60;;